sensor_id;sensor_type;location;lat;lon;timestamp;temperature;humidity
75451;DHT22;64029;48.244;9.188;2023-07-09T00:00:18;18.20;68.80
75451;DHT22;64029;48.244;9.188;2023-07-09T00:02:46;18.10;68.60
75451;DHT22;64029;48.244;9.188;2023-07-09T00:05:18;18.10;68.70
75451;DHT22;64029;48.244;9.188;2023-07-09T00:07:46;18.00;68.90
75451;DHT22;64029;48.244;9.188;2023-07-09T00:10:15;18.00;69.10
75451;DHT22;64029;48.244;9.188;2023-07-09T00:12:42;18.00;69.00
75451;DHT22;64029;48.244;9.188;2023-07-09T00:15:16;17.90;69.30
75451;DHT22;64029;48.244;9.188;2023-07-09T00:17:47;17.90;68.80
75451;DHT22;64029;48.244;9.188;2023-07-09T00:27:14;17.70;68.90
75451;DHT22;64029;48.244;9.188;2023-07-09T00:49:43;17.40;69.40
75451;DHT22;64029;48.244;9.188;2023-07-09T00:54:09;17.40;69.00
75451;DHT22;64029;48.244;9.188;2023-07-09T01:24:12;16.90;69.40
75451;DHT22;64029;48.244;9.188;2023-07-09T01:27:14;16.90;69.50
75451;DHT22;64029;48.244;9.188;2023-07-09T01:30:23;16.90;69.70
75451;DHT22;64029;48.244;9.188;2023-07-09T01:33:15;16.80;70.00
75451;DHT22;64029;48.244;9.188;2023-07-09T01:36:42;16.70;69.80
75451;DHT22;64029;48.244;9.188;2023-07-09T01:39:27;16.80;69.50
75451;DHT22;64029;48.244;9.188;2023-07-09T01:42:02;16.80;69.50
75451;DHT22;64029;48.244;9.188;2023-07-09T01:44:45;16.70;69.50
75451;DHT22;64029;48.244;9.188;2023-07-09T01:47:56;16.70;70.20
75451;DHT22;64029;48.244;9.188;2023-07-09T01:50:43;16.60;70.40
75451;DHT22;64029;48.244;9.188;2023-07-09T01:53:23;16.50;70.60
75451;DHT22;64029;48.244;9.188;2023-07-09T01:59:01;16.50;70.20
75451;DHT22;64029;48.244;9.188;2023-07-09T02:04:47;16.30;70.30
75451;DHT22;64029;48.244;9.188;2023-07-09T02:07:21;16.30;70.30
75451;DHT22;64029;48.244;9.188;2023-07-09T02:10:00;16.40;70.20
75451;DHT22;64029;48.244;9.188;2023-07-09T02:12:31;16.30;70.20
75451;DHT22;64029;48.244;9.188;2023-07-09T02:15:02;16.30;70.60
75451;DHT22;64029;48.244;9.188;2023-07-09T02:17:30;16.20;70.60
75451;DHT22;64029;48.244;9.188;2023-07-09T02:19:57;16.20;70.60
75451;DHT22;64029;48.244;9.188;2023-07-09T02:22:35;16.20;71.30
75451;DHT22;64029;48.244;9.188;2023-07-09T02:25:03;16.10;70.50
75451;DHT22;64029;48.244;9.188;2023-07-09T02:27:44;16.10;70.40
75451;DHT22;64029;48.244;9.188;2023-07-09T02:30:52;16.10;70.40
75451;DHT22;64029;48.244;9.188;2023-07-09T02:33:27;16.00;70.30
75451;DHT22;64029;48.244;9.188;2023-07-09T02:36:20;16.00;70.50
75451;DHT22;64029;48.244;9.188;2023-07-09T02:38:50;16.00;70.70
75451;DHT22;64029;48.244;9.188;2023-07-09T02:41:22;16.00;70.80
75451;DHT22;64029;48.244;9.188;2023-07-09T02:43:51;16.00;70.40
75451;DHT22;64029;48.244;9.188;2023-07-09T02:46:23;15.90;70.80
75451;DHT22;64029;48.244;9.188;2023-07-09T02:48:50;15.80;71.00
75451;DHT22;64029;48.244;9.188;2023-07-09T02:51:28;15.80;71.80
75451;DHT22;64029;48.244;9.188;2023-07-09T02:54:01;15.80;71.60
75451;DHT22;64029;48.244;9.188;2023-07-09T02:56:30;15.70;71.30
75451;DHT22;64029;48.244;9.188;2023-07-09T02:59:01;15.70;71.30
75451;DHT22;64029;48.244;9.188;2023-07-09T03:01:29;15.80;71.00
75451;DHT22;64029;48.244;9.188;2023-07-09T03:03:59;15.70;70.90
75451;DHT22;64029;48.244;9.188;2023-07-09T03:06:37;15.60;71.00
75451;DHT22;64029;48.244;9.188;2023-07-09T03:09:06;15.60;71.60
75451;DHT22;64029;48.244;9.188;2023-07-09T03:11:34;15.60;71.90
75451;DHT22;64029;48.244;9.188;2023-07-09T03:14:04;15.50;71.80
75451;DHT22;64029;48.244;9.188;2023-07-09T03:16:33;15.50;71.60
75451;DHT22;64029;48.244;9.188;2023-07-09T03:19:00;15.50;71.40
75451;DHT22;64029;48.244;9.188;2023-07-09T03:21:28;15.50;71.00
75451;DHT22;64029;48.244;9.188;2023-07-09T03:23:56;15.50;71.20
75451;DHT22;64029;48.244;9.188;2023-07-09T03:26:23;15.40;71.40
75451;DHT22;64029;48.244;9.188;2023-07-09T03:29:00;15.40;71.20
75451;DHT22;64029;48.244;9.188;2023-07-09T03:31:29;15.40;71.40
75451;DHT22;64029;48.244;9.188;2023-07-09T03:34:00;15.30;71.70
75451;DHT22;64029;48.244;9.188;2023-07-09T03:36:27;15.30;71.50
75451;DHT22;64029;48.244;9.188;2023-07-09T03:38:54;15.30;71.60
75451;DHT22;64029;48.244;9.188;2023-07-09T03:41:21;15.30;71.20
75451;DHT22;64029;48.244;9.188;2023-07-09T03:43:48;15.30;71.50
75451;DHT22;64029;48.244;9.188;2023-07-09T03:46:18;15.20;71.60
75451;DHT22;64029;48.244;9.188;2023-07-09T03:48:46;15.20;71.80
75451;DHT22;64029;48.244;9.188;2023-07-09T03:51:15;15.20;72.10
75451;DHT22;64029;48.244;9.188;2023-07-09T03:53:43;15.10;72.20
75451;DHT22;64029;48.244;9.188;2023-07-09T03:56:10;15.20;71.90
75451;DHT22;64029;48.244;9.188;2023-07-09T03:58:38;15.20;71.90
75451;DHT22;64029;48.244;9.188;2023-07-09T04:01:05;15.10;71.80
75451;DHT22;64029;48.244;9.188;2023-07-09T04:03:35;15.10;72.10
75451;DHT22;64029;48.244;9.188;2023-07-09T04:06:04;15.00;72.20
75451;DHT22;64029;48.244;9.188;2023-07-09T04:08:37;15.10;72.00
75451;DHT22;64029;48.244;9.188;2023-07-09T04:11:07;15.10;72.40
75451;DHT22;64029;48.244;9.188;2023-07-09T04:13:34;15.00;72.80
75451;DHT22;64029;48.244;9.188;2023-07-09T04:16:01;15.00;73.10
75451;DHT22;64029;48.244;9.188;2023-07-09T04:18:29;15.00;72.90
75451;DHT22;64029;48.244;9.188;2023-07-09T04:21:17;15.00;72.50
75451;DHT22;64029;48.244;9.188;2023-07-09T04:23:53;15.00;73.00
75451;DHT22;64029;48.244;9.188;2023-07-09T04:26:20;15.00;72.80
75451;DHT22;64029;48.244;9.188;2023-07-09T04:28:53;15.00;73.10
75451;DHT22;64029;48.244;9.188;2023-07-09T04:31:20;14.90;72.90
75451;DHT22;64029;48.244;9.188;2023-07-09T04:33:47;14.90;73.50
75451;DHT22;64029;48.244;9.188;2023-07-09T04:36:15;14.90;73.80
75451;DHT22;64029;48.244;9.188;2023-07-09T04:38:45;14.90;73.50
75451;DHT22;64029;48.244;9.188;2023-07-09T04:41:12;14.90;74.40
75451;DHT22;64029;48.244;9.188;2023-07-09T04:43:39;14.90;73.60
75451;DHT22;64029;48.244;9.188;2023-07-09T04:46:10;14.90;73.20
75451;DHT22;64029;48.244;9.188;2023-07-09T04:48:38;14.90;73.60
75451;DHT22;64029;48.244;9.188;2023-07-09T04:51:08;14.90;73.90
75451;DHT22;64029;48.244;9.188;2023-07-09T04:53:37;14.80;73.60
75451;DHT22;64029;48.244;9.188;2023-07-09T04:58:56;14.90;74.30
75451;DHT22;64029;48.244;9.188;2023-07-09T05:01:29;14.90;75.30
75451;DHT22;64029;48.244;9.188;2023-07-09T05:03:57;14.90;74.50
75451;DHT22;64029;48.244;9.188;2023-07-09T05:06:27;14.90;74.10
75451;DHT22;64029;48.244;9.188;2023-07-09T05:08:59;14.90;73.90
75451;DHT22;64029;48.244;9.188;2023-07-09T05:11:26;14.90;75.00
75451;DHT22;64029;48.244;9.188;2023-07-09T05:13:54;14.90;75.40
75451;DHT22;64029;48.244;9.188;2023-07-09T05:16:24;15.00;75.70
75451;DHT22;64029;48.244;9.188;2023-07-09T05:18:53;15.00;75.10
75451;DHT22;64029;48.244;9.188;2023-07-09T05:21:24;15.10;75.80
75451;DHT22;64029;48.244;9.188;2023-07-09T05:23:51;15.10;76.80
75451;DHT22;64029;48.244;9.188;2023-07-09T05:26:22;15.10;76.00
75451;DHT22;64029;48.244;9.188;2023-07-09T05:28:54;15.10;76.20
75451;DHT22;64029;48.244;9.188;2023-07-09T05:31:26;15.10;76.00
75451;DHT22;64029;48.244;9.188;2023-07-09T05:33:56;15.10;76.00
75451;DHT22;64029;48.244;9.188;2023-07-09T05:37:06;15.20;76.90
75451;DHT22;64029;48.244;9.188;2023-07-09T05:39:36;15.20;76.20
75451;DHT22;64029;48.244;9.188;2023-07-09T05:42:16;15.30;75.20
75451;DHT22;64029;48.244;9.188;2023-07-09T05:44:44;15.30;74.90
75451;DHT22;64029;48.244;9.188;2023-07-09T05:50:09;15.40;75.10
75451;DHT22;64029;48.244;9.188;2023-07-09T05:52:56;15.50;73.60
75451;DHT22;64029;48.244;9.188;2023-07-09T05:55:32;15.50;73.00
75451;DHT22;64029;48.244;9.188;2023-07-09T05:58:12;15.60;72.20
75451;DHT22;64029;48.244;9.188;2023-07-09T06:00:44;15.70;72.00
75451;DHT22;64029;48.244;9.188;2023-07-09T06:03:42;15.70;71.90
75451;DHT22;64029;48.244;9.188;2023-07-09T06:09:44;15.90;71.20
75451;DHT22;64029;48.244;9.188;2023-07-09T06:12:26;16.00;72.20
75451;DHT22;64029;48.244;9.188;2023-07-09T06:22:03;16.60;74.70
75451;DHT22;64029;48.244;9.188;2023-07-09T06:28:12;17.00;75.40
75451;DHT22;64029;48.244;9.188;2023-07-09T06:31:05;17.20;75.90
75451;DHT22;64029;48.244;9.188;2023-07-09T07:17:08;21.10;75.60
75451;DHT22;64029;48.244;9.188;2023-07-09T07:20:19;21.60;75.30
75451;DHT22;64029;48.244;9.188;2023-07-09T07:23:30;22.00;74.60
75451;DHT22;64029;48.244;9.188;2023-07-09T07:26:47;22.40;74.70
75451;DHT22;64029;48.244;9.188;2023-07-09T07:34:00;23.30;74.10
75451;DHT22;64029;48.244;9.188;2023-07-09T07:36:27;23.80;74.30
75451;DHT22;64029;48.244;9.188;2023-07-09T07:38:54;24.10;74.10
75451;DHT22;64029;48.244;9.188;2023-07-09T07:41:21;24.50;73.00
75451;DHT22;64029;48.244;9.188;2023-07-09T07:43:48;24.80;72.70
75451;DHT22;64029;48.244;9.188;2023-07-09T07:46:15;25.00;71.50
75451;DHT22;64029;48.244;9.188;2023-07-09T07:48:42;25.20;70.30
75451;DHT22;64029;48.244;9.188;2023-07-09T07:51:10;25.30;68.80
75451;DHT22;64029;48.244;9.188;2023-07-09T07:53:37;25.50;66.90
75451;DHT22;64029;48.244;9.188;2023-07-09T07:56:04;25.70;67.50
75451;DHT22;64029;48.244;9.188;2023-07-09T07:58:31;25.80;64.80
75451;DHT22;64029;48.244;9.188;2023-07-09T08:00:58;26.00;66.20
75451;DHT22;64029;48.244;9.188;2023-07-09T08:03:25;26.10;65.70
75451;DHT22;64029;48.244;9.188;2023-07-09T08:05:52;26.30;65.40
75451;DHT22;64029;48.244;9.188;2023-07-09T08:08:21;26.50;65.10
75451;DHT22;64029;48.244;9.188;2023-07-09T08:10:49;26.70;60.90
75451;DHT22;64029;48.244;9.188;2023-07-09T08:13:19;26.80;60.40
75451;DHT22;64029;48.244;9.188;2023-07-09T08:15:46;27.00;61.50
75451;DHT22;64029;48.244;9.188;2023-07-09T08:18:13;27.10;60.20
75451;DHT22;64029;48.244;9.188;2023-07-09T08:20:43;27.20;60.50
75451;DHT22;64029;48.244;9.188;2023-07-09T08:23:10;27.30;60.10
75451;DHT22;64029;48.244;9.188;2023-07-09T08:25:38;27.40;60.00
75451;DHT22;64029;48.244;9.188;2023-07-09T08:28:05;27.60;59.70
75451;DHT22;64029;48.244;9.188;2023-07-09T08:30:35;27.70;59.40
75451;DHT22;64029;48.244;9.188;2023-07-09T08:33:02;27.80;58.40
75451;DHT22;64029;48.244;9.188;2023-07-09T08:35:29;28.00;58.60
75451;DHT22;64029;48.244;9.188;2023-07-09T08:37:57;28.10;57.20
75451;DHT22;64029;48.244;9.188;2023-07-09T08:40:24;28.20;58.10
75451;DHT22;64029;48.244;9.188;2023-07-09T08:42:58;28.20;55.50
75451;DHT22;64029;48.244;9.188;2023-07-09T08:45:36;28.40;55.60
75451;DHT22;64029;48.244;9.188;2023-07-09T08:48:09;28.50;55.80
75451;DHT22;64029;48.244;9.188;2023-07-09T08:50:41;28.40;55.40
75451;DHT22;64029;48.244;9.188;2023-07-09T08:53:15;28.50;54.80
75451;DHT22;64029;48.244;9.188;2023-07-09T08:55:45;28.50;53.30
75451;DHT22;64029;48.244;9.188;2023-07-09T08:58:17;28.60;51.80
75451;DHT22;64029;48.244;9.188;2023-07-09T09:00:51;28.60;53.70
75451;DHT22;64029;48.244;9.188;2023-07-09T09:03:29;28.60;53.10
75451;DHT22;64029;48.244;9.188;2023-07-09T09:05:58;28.80;53.10
75451;DHT22;64029;48.244;9.188;2023-07-09T09:08:35;28.80;53.50
75451;DHT22;64029;48.244;9.188;2023-07-09T09:11:10;29.00;53.60
75451;DHT22;64029;48.244;9.188;2023-07-09T09:13:43;29.00;50.40
75451;DHT22;64029;48.244;9.188;2023-07-09T09:16:20;29.00;53.00
75451;DHT22;64029;48.244;9.188;2023-07-09T09:18:49;29.10;52.10
75451;DHT22;64029;48.244;9.188;2023-07-09T09:21:21;29.10;52.20
75451;DHT22;64029;48.244;9.188;2023-07-09T09:23:51;29.10;51.80
75451;DHT22;64029;48.244;9.188;2023-07-09T09:26:23;29.10;51.40
75451;DHT22;64029;48.244;9.188;2023-07-09T09:28:52;29.30;51.50
75451;DHT22;64029;48.244;9.188;2023-07-09T09:31:20;29.20;50.90
75451;DHT22;64029;48.244;9.188;2023-07-09T09:33:48;29.30;50.70
75451;DHT22;64029;48.244;9.188;2023-07-09T09:36:19;29.20;49.50
75451;DHT22;64029;48.244;9.188;2023-07-09T09:38:46;29.20;50.50
75451;DHT22;64029;48.244;9.188;2023-07-09T09:41:17;29.20;50.80
75451;DHT22;64029;48.244;9.188;2023-07-09T09:43:46;29.20;49.70
75451;DHT22;64029;48.244;9.188;2023-07-09T09:46:19;29.20;50.30
75451;DHT22;64029;48.244;9.188;2023-07-09T09:48:48;29.20;50.40
75451;DHT22;64029;48.244;9.188;2023-07-09T09:51:16;29.20;48.70
75451;DHT22;64029;48.244;9.188;2023-07-09T09:53:47;29.20;49.80
75451;DHT22;64029;48.244;9.188;2023-07-09T09:56:19;29.20;48.50
75451;DHT22;64029;48.244;9.188;2023-07-09T09:58:51;29.20;49.30
75451;DHT22;64029;48.244;9.188;2023-07-09T10:01:22;29.20;49.50
75451;DHT22;64029;48.244;9.188;2023-07-09T10:03:54;29.20;49.70
75451;DHT22;64029;48.244;9.188;2023-07-09T10:06:28;29.10;49.00
75451;DHT22;64029;48.244;9.188;2023-07-09T10:09:03;29.10;49.30
75451;DHT22;64029;48.244;9.188;2023-07-09T10:11:41;29.10;49.70
75451;DHT22;64029;48.244;9.188;2023-07-09T10:14:22;29.00;48.00
75451;DHT22;64029;48.244;9.188;2023-07-09T10:16:57;29.00;49.30
75451;DHT22;64029;48.244;9.188;2023-07-09T10:19:31;29.00;49.70
75451;DHT22;64029;48.244;9.188;2023-07-09T10:22:05;29.10;49.20
75451;DHT22;64029;48.244;9.188;2023-07-09T10:24:41;29.10;50.50
75451;DHT22;64029;48.244;9.188;2023-07-09T10:27:13;29.00;50.60
75451;DHT22;64029;48.244;9.188;2023-07-09T10:29:55;29.00;50.60
75451;DHT22;64029;48.244;9.188;2023-07-09T10:32:34;29.00;50.20
75451;DHT22;64029;48.244;9.188;2023-07-09T10:35:08;29.00;49.70
75451;DHT22;64029;48.244;9.188;2023-07-09T10:37:52;29.00;50.50
75451;DHT22;64029;48.244;9.188;2023-07-09T10:40:27;29.00;49.70
75451;DHT22;64029;48.244;9.188;2023-07-09T10:43:00;28.90;50.20
75451;DHT22;64029;48.244;9.188;2023-07-09T10:45:29;28.90;48.90
75451;DHT22;64029;48.244;9.188;2023-07-09T10:48:02;28.90;50.00
75451;DHT22;64029;48.244;9.188;2023-07-09T10:50:33;28.90;50.10
75451;DHT22;64029;48.244;9.188;2023-07-09T10:53:09;28.90;50.00
75451;DHT22;64029;48.244;9.188;2023-07-09T10:55:43;28.90;47.50
75451;DHT22;64029;48.244;9.188;2023-07-09T10:58:23;28.80;48.30
75451;DHT22;64029;48.244;9.188;2023-07-09T11:00:53;28.80;49.80
75451;DHT22;64029;48.244;9.188;2023-07-09T11:03:26;28.80;47.90
75451;DHT22;64029;48.244;9.188;2023-07-09T11:05:57;28.80;49.40
75451;DHT22;64029;48.244;9.188;2023-07-09T11:08:27;28.80;49.80
75451;DHT22;64029;48.244;9.188;2023-07-09T11:10:58;28.80;50.30
75451;DHT22;64029;48.244;9.188;2023-07-09T11:13:31;28.90;50.80
75451;DHT22;64029;48.244;9.188;2023-07-09T11:15:59;28.90;50.90
75451;DHT22;64029;48.244;9.188;2023-07-09T11:18:33;28.90;51.10
75451;DHT22;64029;48.244;9.188;2023-07-09T11:21:04;28.90;51.00
75451;DHT22;64029;48.244;9.188;2023-07-09T11:23:39;29.00;50.80
75451;DHT22;64029;48.244;9.188;2023-07-09T11:26:12;29.00;51.00
75451;DHT22;64029;48.244;9.188;2023-07-09T11:28:41;29.00;51.10
75451;DHT22;64029;48.244;9.188;2023-07-09T11:31:19;29.00;51.30
75451;DHT22;64029;48.244;9.188;2023-07-09T11:33:56;29.00;51.20
75451;DHT22;64029;48.244;9.188;2023-07-09T11:36:28;29.00;50.50
75451;DHT22;64029;48.244;9.188;2023-07-09T11:38:55;29.00;49.90
75451;DHT22;64029;48.244;9.188;2023-07-09T11:41:37;29.00;50.40
75451;DHT22;64029;48.244;9.188;2023-07-09T11:44:13;29.00;50.20
75451;DHT22;64029;48.244;9.188;2023-07-09T11:49:45;29.00;50.60
75451;DHT22;64029;48.244;9.188;2023-07-09T11:52:13;29.00;51.00
75451;DHT22;64029;48.244;9.188;2023-07-09T11:54:42;29.00;49.90
75451;DHT22;64029;48.244;9.188;2023-07-09T11:57:12;29.00;49.30
75451;DHT22;64029;48.244;9.188;2023-07-09T11:59:40;29.00;49.90
75451;DHT22;64029;48.244;9.188;2023-07-09T12:02:15;29.10;50.20
75451;DHT22;64029;48.244;9.188;2023-07-09T12:04:44;29.00;50.60
75451;DHT22;64029;48.244;9.188;2023-07-09T12:07:15;29.00;47.70
75451;DHT22;64029;48.244;9.188;2023-07-09T12:09:47;28.90;48.70
75451;DHT22;64029;48.244;9.188;2023-07-09T12:12:20;28.90;48.00
75451;DHT22;64029;48.244;9.188;2023-07-09T12:14:48;29.00;48.60
75451;DHT22;64029;48.244;9.188;2023-07-09T12:17:16;29.00;49.00
75451;DHT22;64029;48.244;9.188;2023-07-09T12:19:44;29.00;49.80
75451;DHT22;64029;48.244;9.188;2023-07-09T12:22:20;29.10;48.20
75451;DHT22;64029;48.244;9.188;2023-07-09T12:24:49;29.10;49.00
75451;DHT22;64029;48.244;9.188;2023-07-09T12:27:19;29.10;47.80
75451;DHT22;64029;48.244;9.188;2023-07-09T12:29:46;29.10;47.10
75451;DHT22;64029;48.244;9.188;2023-07-09T12:32:15;29.10;47.30
75451;DHT22;64029;48.244;9.188;2023-07-09T12:34:44;29.20;47.40
75451;DHT22;64029;48.244;9.188;2023-07-09T12:37:14;29.10;47.70
75451;DHT22;64029;48.244;9.188;2023-07-09T12:39:41;29.20;47.30
75451;DHT22;64029;48.244;9.188;2023-07-09T12:42:15;29.10;46.90
75451;DHT22;64029;48.244;9.188;2023-07-09T12:44:43;29.00;46.70
75451;DHT22;64029;48.244;9.188;2023-07-09T12:47:13;29.00;47.50
75451;DHT22;64029;48.244;9.188;2023-07-09T12:49:42;29.10;46.80
75451;DHT22;64029;48.244;9.188;2023-07-09T12:52:16;29.10;46.00
75451;DHT22;64029;48.244;9.188;2023-07-09T12:54:52;29.10;46.80
75451;DHT22;64029;48.244;9.188;2023-07-09T12:57:22;29.10;46.70
75451;DHT22;64029;48.244;9.188;2023-07-09T12:59:49;29.10;47.30
75451;DHT22;64029;48.244;9.188;2023-07-09T13:02:17;29.20;47.80
75451;DHT22;64029;48.244;9.188;2023-07-09T13:04:45;29.20;47.10
75451;DHT22;64029;48.244;9.188;2023-07-09T13:07:36;29.20;45.20
75451;DHT22;64029;48.244;9.188;2023-07-09T13:10:15;29.30;46.60
75451;DHT22;64029;48.244;9.188;2023-07-09T13:12:45;29.30;46.50
75451;DHT22;64029;48.244;9.188;2023-07-09T13:15:23;29.30;45.50
75451;DHT22;64029;48.244;9.188;2023-07-09T13:17:57;29.40;46.20
75451;DHT22;64029;48.244;9.188;2023-07-09T13:20:24;29.40;44.70
75451;DHT22;64029;48.244;9.188;2023-07-09T13:22:53;29.40;44.50
75451;DHT22;64029;48.244;9.188;2023-07-09T13:25:20;29.50;44.20
75451;DHT22;64029;48.244;9.188;2023-07-09T13:27:47;29.50;44.60
75451;DHT22;64029;48.244;9.188;2023-07-09T13:30:14;29.60;45.70
75451;DHT22;64029;48.244;9.188;2023-07-09T13:32:41;29.60;44.80
75451;DHT22;64029;48.244;9.188;2023-07-09T13:35:13;29.60;45.10
75451;DHT22;64029;48.244;9.188;2023-07-09T13:37:42;29.60;44.00
75451;DHT22;64029;48.244;9.188;2023-07-09T13:40:13;29.60;45.00
75451;DHT22;64029;48.244;9.188;2023-07-09T13:42:42;29.60;43.90
75451;DHT22;64029;48.244;9.188;2023-07-09T13:45:22;29.60;43.10
75451;DHT22;64029;48.244;9.188;2023-07-09T13:47:50;29.60;43.80
75451;DHT22;64029;48.244;9.188;2023-07-09T13:50:17;29.60;44.00
75451;DHT22;64029;48.244;9.188;2023-07-09T13:52:44;29.70;45.40
75451;DHT22;64029;48.244;9.188;2023-07-09T13:55:19;29.60;43.30
75451;DHT22;64029;48.244;9.188;2023-07-09T13:57:47;29.70;43.20
75451;DHT22;64029;48.244;9.188;2023-07-09T14:00:14;29.70;43.00
75451;DHT22;64029;48.244;9.188;2023-07-09T14:02:42;29.70;42.60
75451;DHT22;64029;48.244;9.188;2023-07-09T14:05:11;29.70;44.10
75451;DHT22;64029;48.244;9.188;2023-07-09T14:07:41;29.80;43.80
75451;DHT22;64029;48.244;9.188;2023-07-09T14:10:13;29.70;42.40
75451;DHT22;64029;48.244;9.188;2023-07-09T14:12:46;29.70;41.30
75451;DHT22;64029;48.244;9.188;2023-07-09T14:15:15;29.70;43.20
75451;DHT22;64029;48.244;9.188;2023-07-09T14:17:45;29.70;42.30
75451;DHT22;64029;48.244;9.188;2023-07-09T14:20:13;29.70;41.60
75451;DHT22;64029;48.244;9.188;2023-07-09T14:22:41;29.70;42.50
75451;DHT22;64029;48.244;9.188;2023-07-09T14:25:17;29.80;42.60
75451;DHT22;64029;48.244;9.188;2023-07-09T14:27:45;29.80;43.10
75451;DHT22;64029;48.244;9.188;2023-07-09T14:30:16;29.80;43.30
75451;DHT22;64029;48.244;9.188;2023-07-09T14:32:48;29.90;43.20
75451;DHT22;64029;48.244;9.188;2023-07-09T14:35:17;29.90;44.20
75451;DHT22;64029;48.244;9.188;2023-07-09T14:37:45;29.90;45.00
75451;DHT22;64029;48.244;9.188;2023-07-09T14:40:13;29.90;45.30
75451;DHT22;64029;48.244;9.188;2023-07-09T14:42:41;29.90;45.70
75451;DHT22;64029;48.244;9.188;2023-07-09T14:45:19;29.90;46.10
75451;DHT22;64029;48.244;9.188;2023-07-09T14:47:47;29.90;44.60
75451;DHT22;64029;48.244;9.188;2023-07-09T14:50:17;30.00;43.30
75451;DHT22;64029;48.244;9.188;2023-07-09T14:52:47;30.00;44.10
75451;DHT22;64029;48.244;9.188;2023-07-09T14:55:15;29.90;42.30
75451;DHT22;64029;48.244;9.188;2023-07-09T14:57:42;30.00;43.30
75451;DHT22;64029;48.244;9.188;2023-07-09T15:00:13;30.00;44.70
75451;DHT22;64029;48.244;9.188;2023-07-09T15:02:43;29.90;41.60
75451;DHT22;64029;48.244;9.188;2023-07-09T15:05:14;29.90;43.70
75451;DHT22;64029;48.244;9.188;2023-07-09T15:07:41;29.90;41.00
75451;DHT22;64029;48.244;9.188;2023-07-09T15:10:12;29.90;40.60
75451;DHT22;64029;48.244;9.188;2023-07-09T15:12:39;29.90;42.80
75451;DHT22;64029;48.244;9.188;2023-07-09T15:15:13;30.00;42.50
75451;DHT22;64029;48.244;9.188;2023-07-09T15:17:43;30.00;43.00
75451;DHT22;64029;48.244;9.188;2023-07-09T15:20:13;30.00;42.20
75451;DHT22;64029;48.244;9.188;2023-07-09T15:22:41;30.00;41.90
75451;DHT22;64029;48.244;9.188;2023-07-09T15:25:15;30.00;42.70
75451;DHT22;64029;48.244;9.188;2023-07-09T15:27:42;30.00;43.00
75451;DHT22;64029;48.244;9.188;2023-07-09T15:30:18;30.00;42.60
75451;DHT22;64029;48.244;9.188;2023-07-09T15:32:48;30.00;42.80
75451;DHT22;64029;48.244;9.188;2023-07-09T15:35:16;30.00;42.10
75451;DHT22;64029;48.244;9.188;2023-07-09T15:37:44;30.00;40.40
75451;DHT22;64029;48.244;9.188;2023-07-09T15:40:18;30.00;42.70
75451;DHT22;64029;48.244;9.188;2023-07-09T15:42:45;30.00;41.40
75451;DHT22;64029;48.244;9.188;2023-07-09T15:45:14;30.00;42.20
75451;DHT22;64029;48.244;9.188;2023-07-09T15:47:41;29.90;43.20
75451;DHT22;64029;48.244;9.188;2023-07-09T15:50:16;29.90;42.50
75451;DHT22;64029;48.244;9.188;2023-07-09T15:52:43;29.90;44.60
75451;DHT22;64029;48.244;9.188;2023-07-09T15:55:14;29.90;44.20
75451;DHT22;64029;48.244;9.188;2023-07-09T15:57:42;29.90;43.50
75451;DHT22;64029;48.244;9.188;2023-07-09T16:00:18;29.90;44.50
75451;DHT22;64029;48.244;9.188;2023-07-09T16:02:46;29.90;45.30
75451;DHT22;64029;48.244;9.188;2023-07-09T16:05:26;29.80;45.70
75451;DHT22;64029;48.244;9.188;2023-07-09T16:07:55;29.80;45.80
75451;DHT22;64029;48.244;9.188;2023-07-09T16:10:24;29.80;46.10
75451;DHT22;64029;48.244;9.188;2023-07-09T16:12:52;29.80;46.00
75451;DHT22;64029;48.244;9.188;2023-07-09T16:15:23;29.80;45.80
75451;DHT22;64029;48.244;9.188;2023-07-09T16:17:51;29.80;46.40
75451;DHT22;64029;48.244;9.188;2023-07-09T16:20:21;29.80;46.20
75451;DHT22;64029;48.244;9.188;2023-07-09T16:22:52;29.80;46.40
75451;DHT22;64029;48.244;9.188;2023-07-09T16:25:21;29.70;46.50
75451;DHT22;64029;48.244;9.188;2023-07-09T16:27:49;29.60;46.60
75451;DHT22;64029;48.244;9.188;2023-07-09T16:30:19;29.60;46.90
75451;DHT22;64029;48.244;9.188;2023-07-09T16:32:46;29.50;47.10
75451;DHT22;64029;48.244;9.188;2023-07-09T16:35:15;29.40;47.50
75451;DHT22;64029;48.244;9.188;2023-07-09T16:37:45;29.30;47.50
75451;DHT22;64029;48.244;9.188;2023-07-09T16:40:17;29.30;48.00
75451;DHT22;64029;48.244;9.188;2023-07-09T16:42:45;29.20;48.20
75451;DHT22;64029;48.244;9.188;2023-07-09T16:45:14;29.20;48.30
75451;DHT22;64029;48.244;9.188;2023-07-09T16:47:41;29.20;48.60
75451;DHT22;64029;48.244;9.188;2023-07-09T16:50:12;29.10;48.60
75451;DHT22;64029;48.244;9.188;2023-07-09T16:52:39;29.10;48.40
75451;DHT22;64029;48.244;9.188;2023-07-09T16:55:09;29.00;48.40
75451;DHT22;64029;48.244;9.188;2023-07-09T16:57:39;29.00;48.60
75451;DHT22;64029;48.244;9.188;2023-07-09T17:00:27;28.90;48.60
75451;DHT22;64029;48.244;9.188;2023-07-09T17:02:55;28.90;48.60
75451;DHT22;64029;48.244;9.188;2023-07-09T17:05:23;28.90;48.80
75451;DHT22;64029;48.244;9.188;2023-07-09T17:07:51;28.80;49.00
75451;DHT22;64029;48.244;9.188;2023-07-09T17:10:20;28.80;49.70
75451;DHT22;64029;48.244;9.188;2023-07-09T17:12:50;28.70;49.50
75451;DHT22;64029;48.244;9.188;2023-07-09T17:15:22;28.70;49.70
75451;DHT22;64029;48.244;9.188;2023-07-09T17:17:52;28.70;49.80
75451;DHT22;64029;48.244;9.188;2023-07-09T17:20:21;28.60;49.80
75451;DHT22;64029;48.244;9.188;2023-07-09T17:22:50;28.60;50.10
75451;DHT22;64029;48.244;9.188;2023-07-09T17:25:30;28.60;50.30
75451;DHT22;64029;48.244;9.188;2023-07-09T17:28:01;28.60;50.60
75451;DHT22;64029;48.244;9.188;2023-07-09T17:30:29;28.50;50.50
75451;DHT22;64029;48.244;9.188;2023-07-09T17:32:56;28.50;50.40
75451;DHT22;64029;48.244;9.188;2023-07-09T17:35:23;28.50;50.40
75451;DHT22;64029;48.244;9.188;2023-07-09T17:37:52;28.50;50.40
75451;DHT22;64029;48.244;9.188;2023-07-09T17:40:25;28.40;50.80
75451;DHT22;64029;48.244;9.188;2023-07-09T17:42:54;28.40;50.60
75451;DHT22;64029;48.244;9.188;2023-07-09T17:45:21;28.30;51.00
75451;DHT22;64029;48.244;9.188;2023-07-09T17:47:48;28.30;51.40
75451;DHT22;64029;48.244;9.188;2023-07-09T17:50:17;28.30;51.60
75451;DHT22;64029;48.244;9.188;2023-07-09T17:52:45;28.20;51.80
75451;DHT22;64029;48.244;9.188;2023-07-09T17:55:13;28.20;51.80
75451;DHT22;64029;48.244;9.188;2023-07-09T17:57:41;28.20;51.70
75451;DHT22;64029;48.244;9.188;2023-07-09T18:00:19;28.20;51.60
75451;DHT22;64029;48.244;9.188;2023-07-09T18:02:53;28.10;51.50
75451;DHT22;64029;48.244;9.188;2023-07-09T18:05:24;28.10;51.70
75451;DHT22;64029;48.244;9.188;2023-07-09T18:07:55;28.10;51.90
75451;DHT22;64029;48.244;9.188;2023-07-09T18:10:24;28.10;51.90
75451;DHT22;64029;48.244;9.188;2023-07-09T18:12:53;28.00;52.00